createdAt,value
2019-03-21T00:01:05.645Z,19.40
2019-03-21T00:02:10.923Z,22.35
2019-03-21T00:03:17.467Z,19.05
2019-03-21T00:04:24.659Z,18.07
2019-03-21T00:05:31.743Z,21.87
2019-03-21T00:06:35.946Z,16.90
2019-03-21T00:07:45.406Z,25.32
2019-03-21T00:08:52.302Z,20.20
2019-03-21T00:10:18.839Z,23.02
2019-03-21T00:11:42.779Z,18.45
2019-03-21T00:12:50.010Z,21.55
2019-03-21T00:13:54.154Z,19.60
2019-03-21T00:15:01.757Z,20.52
2019-03-21T00:16:08.765Z,23.18
2019-03-21T00:17:33.762Z,24.80
2019-03-21T00:18:39.245Z,19.07
2019-03-21T00:19:45.027Z,19.92
2019-03-21T00:20:50.785Z,19.20
2019-03-21T00:21:55.293Z,18.30
2019-03-21T00:23:01.965Z,22.55
2019-03-21T00:24:06.979Z,23.07
2019-03-21T00:25:21.844Z,21.70
2019-03-21T00:26:24.134Z,17.27
2019-03-21T00:27:32.965Z,20.68
2019-03-21T00:28:49.389Z,22.02
2019-03-21T00:29:52.388Z,20.62
2019-03-21T00:30:53.345Z,18.17
2019-03-21T00:31:57.556Z,18.40
2019-03-21T00:33:06.674Z,18.30
2019-03-21T00:34:18.371Z,15.93
2019-03-21T00:35:33.176Z,18.65
2019-03-21T00:36:57.692Z,18.85
2019-03-21T00:38:03.438Z,20.72
2019-03-21T00:39:09.623Z,17.00
2019-03-21T00:40:25.574Z,15.45
2019-03-21T00:41:30.146Z,18.82
2019-03-21T00:42:34.695Z,19.42
2019-03-21T00:43:55.069Z,18.85
2019-03-21T00:46:24.119Z,15.95
2019-03-21T00:47:31.365Z,17.57
2019-03-21T00:48:43.025Z,18.65
2019-03-21T00:51:08.397Z,23.52
2019-03-21T00:52:14.171Z,17.57
2019-03-21T00:53:25.847Z,20.03
2019-03-21T00:56:04.037Z,21.52
2019-03-21T00:57:17.825Z,20.35
2019-03-21T00:57:50.547Z,18.87
2019-03-21T00:59:04.097Z,20.25
2019-03-21T00:59:34.317Z,20.17
2019-03-21T01:01:32.704Z,15.40
2019-03-21T01:02:17.003Z,22.70
2019-03-21T01:03:25.546Z,18.55
2019-03-21T01:05:47.887Z,20.45
2019-03-21T01:05:58.611Z,20.12
2019-03-21T01:07:11.849Z,22.70
2019-03-21T01:09:25.778Z,18.98
2019-03-21T01:09:46.959Z,21.05
2019-03-21T01:10:53.608Z,17.37
2019-03-21T01:12:16.603Z,17.35
2019-03-21T01:13:26.144Z,17.40
2019-03-21T01:14:42.611Z,18.70
2019-03-21T01:15:47.937Z,21.75
2019-03-21T01:16:54.388Z,19.87
2019-03-21T01:17:58.739Z,22.87
2019-03-21T01:19:09.019Z,20.17
2019-03-21T01:20:16.069Z,20.50
2019-03-21T01:21:21.861Z,17.07
2019-03-21T01:22:27.811Z,17.30
2019-03-21T01:23:34.979Z,18.15
2019-03-21T01:24:43.131Z,18.25
2019-03-21T01:25:55.051Z,19.92
2019-03-21T01:27:00.909Z,17.55
2019-03-21T01:28:09.293Z,20.45
2019-03-21T01:29:18.927Z,21.40
2019-03-21T01:30:23.159Z,21.68
2019-03-21T01:31:32.096Z,22.02
2019-03-21T01:32:39.025Z,20.40
2019-03-21T01:33:44.879Z,20.62
2019-03-21T01:35:08.360Z,18.42
2019-03-21T01:36:27.163Z,21.57
2019-03-21T01:37:21.883Z,20.02
2019-03-21T01:38:37.009Z,18.75
2019-03-21T01:39:40.326Z,20.12
2019-03-21T01:40:52.545Z,19.65
2019-03-21T01:42:02.882Z,25.00
2019-03-21T01:43:08.341Z,23.67
2019-03-21T01:44:16.877Z,22.27
2019-03-21T01:45:27.942Z,20.50
2019-03-21T01:46:33.893Z,21.07
2019-03-21T01:47:46.100Z,20.62
2019-03-21T01:48:47.599Z,18.98
2019-03-21T01:50:04.126Z,22.35
2019-03-21T01:51:12.453Z,19.50
2019-03-21T01:52:19.021Z,19.80
2019-03-21T01:54:03.807Z,24.10
2019-03-21T01:54:42.923Z,16.75
2019-03-21T01:55:45.363Z,21.40
2019-03-21T01:56:49.673Z,19.25
2019-03-21T01:57:55.523Z,18.25
2019-03-21T01:59:01.060Z,27.15
2019-03-21T02:00:17.341Z,19.23
2019-03-21T02:01:25.125Z,24.10
2019-03-21T02:02:33.319Z,24.95
2019-03-21T02:03:38.823Z,20.37
2019-03-21T02:04:52.251Z,22.25
2019-03-21T02:05:59.329Z,20.80
2019-03-21T02:07:11.219Z,22.52
2019-03-21T02:08:21.775Z,20.70
2019-03-21T02:09:27.332Z,22.55
2019-03-21T02:10:31.819Z,22.67
2019-03-21T02:11:38.923Z,21.90
2019-03-21T02:12:53.126Z,27.07
2019-03-21T02:14:00.629Z,22.48
2019-03-21T02:15:08.701Z,22.40
2019-03-21T02:16:14.548Z,22.98
2019-03-21T02:17:20.228Z,17.52
2019-03-21T02:18:26.763Z,22.77
2019-03-21T02:19:33.708Z,20.12
2019-03-21T02:20:45.707Z,24.57
2019-03-21T02:21:52.699Z,22.45
2019-03-21T02:22:59.649Z,19.60
2019-03-21T02:24:06.854Z,27.07
2019-03-21T02:25:16.225Z,21.57
2019-03-21T02:26:22.607Z,26.35
2019-03-21T02:29:10.763Z,24.67
2019-03-21T02:30:01.665Z,21.82
2019-03-21T02:31:07.232Z,22.40
2019-03-21T02:32:11.669Z,25.40
2019-03-21T02:33:29.307Z,27.15
2019-03-21T02:34:30.548Z,25.15
2019-03-21T02:35:37.016Z,25.85
2019-03-21T02:37:25.090Z,23.47
2019-03-21T02:42:02.061Z,28.92
2019-03-21T02:42:45.279Z,27.02
2019-03-21T02:43:46.078Z,22.35
2019-03-21T02:45:07.197Z,22.80
2019-03-21T02:46:01.259Z,24.27
2019-03-21T02:47:10.253Z,22.50
2019-03-21T02:48:17.204Z,24.07
2019-03-21T02:49:24.197Z,25.68
2019-03-21T02:50:48.686Z,28.83
2019-03-21T02:51:54.541Z,24.47
2019-03-21T02:53:01.569Z,23.70
2019-03-21T02:54:07.359Z,27.25
2019-03-21T02:55:13.975Z,28.35
2019-03-21T02:56:21.355Z,24.57
2019-03-21T02:57:29.861Z,23.83
2019-03-21T02:58:37.534Z,27.60
2019-03-21T02:59:43.706Z,24.90
2019-03-21T03:00:51.121Z,23.42
2019-03-21T03:01:55.700Z,27.55
2019-03-21T03:03:00.836Z,26.07
2019-03-21T03:04:06.681Z,20.55
2019-03-21T03:05:15.788Z,22.15
2019-03-21T03:06:20.548Z,26.48
2019-03-21T03:07:26.449Z,28.10
2019-03-21T03:08:35.895Z,23.70
2019-03-21T03:09:39.308Z,24.45
2019-03-21T03:10:52.052Z,26.35
2019-03-21T03:12:01.889Z,23.40
2019-03-21T03:13:07.545Z,28.92
2019-03-21T03:14:16.001Z,26.70
2019-03-21T03:15:25.171Z,26.55
2019-03-21T03:16:30.093Z,23.77
2019-03-21T03:17:35.808Z,25.55
2019-03-21T03:18:40.083Z,24.07
2019-03-21T03:19:45.546Z,26.82
2019-03-21T03:20:49.823Z,30.70
2019-03-21T03:21:54.136Z,25.02
2019-03-21T03:22:58.379Z,22.73
2019-03-21T03:24:04.260Z,25.77
2019-03-21T03:25:13.916Z,24.18
2019-03-21T03:26:19.523Z,28.27
2019-03-21T03:27:23.764Z,27.32
2019-03-21T03:28:38.621Z,27.93
2019-03-21T03:29:42.855Z,28.15
2019-03-21T03:30:49.348Z,29.48
2019-03-21T03:31:53.735Z,25.88
2019-03-21T03:33:01.191Z,24.82
2019-03-21T03:34:05.379Z,31.42
2019-03-21T03:35:11.967Z,29.87
2019-03-21T03:36:16.854Z,25.92
2019-03-21T03:37:21.032Z,25.82
2019-03-21T03:38:26.968Z,26.23
2019-03-21T03:39:31.306Z,27.73
2019-03-21T03:40:42.415Z,27.07
2019-03-21T03:42:51.674Z,28.85
2019-03-21T03:43:55.886Z,24.92
2019-03-21T03:45:00.396Z,28.15
2019-03-21T03:46:04.949Z,23.55
2019-03-21T03:47:09.215Z,24.67
2019-03-21T03:48:14.490Z,27.00
2019-03-21T03:49:20.827Z,26.50
2019-03-21T03:50:26.680Z,26.65
2019-03-21T03:51:30.816Z,26.25
2019-03-21T03:52:39.490Z,27.48
2019-03-21T03:53:43.809Z,30.05
2019-03-21T03:54:48.012Z,26.73
2019-03-21T03:55:55.274Z,30.80
2019-03-21T03:57:01.146Z,26.85
2019-03-21T03:58:53.360Z,27.45
2019-03-21T03:59:54.003Z,24.67
2019-03-21T04:01:06.475Z,30.30
2019-03-21T04:02:20.861Z,29.98
2019-03-21T04:03:29.586Z,29.40
2019-03-21T04:04:35.557Z,36.30
2019-03-21T04:05:42.762Z,26.62
2019-03-21T04:06:47.027Z,27.87
2019-03-21T04:07:54.931Z,28.75
2019-03-21T04:09:01.443Z,33.35
2019-03-21T04:10:08.636Z,33.80
2019-03-21T04:11:14.546Z,30.57
2019-03-21T04:12:20.099Z,26.55
2019-03-21T04:13:24.319Z,31.65
2019-03-21T04:14:32.349Z,28.83
2019-03-21T04:15:51.633Z,26.97
2019-03-21T04:16:46.142Z,26.62
2019-03-21T04:17:55.212Z,25.65
2019-03-21T04:19:02.574Z,33.70
2019-03-21T04:20:12.345Z,28.38
2019-03-21T04:21:18.858Z,31.05
2019-03-21T04:22:26.114Z,26.40
2019-03-21T04:23:30.386Z,31.87
2019-03-21T04:24:34.702Z,28.40
2019-03-21T04:25:46.129Z,28.23
2019-03-21T04:26:53.714Z,32.53
2019-03-21T04:27:57.635Z,35.38
2019-03-21T04:29:04.277Z,30.55
2019-03-21T04:30:10.679Z,29.63
2019-03-21T04:31:17.237Z,30.40
2019-03-21T04:32:24.260Z,29.37
2019-03-21T04:33:32.441Z,32.38
2019-03-21T04:34:39.156Z,28.05
2019-03-21T04:35:44.174Z,26.73
2019-03-21T04:36:50.047Z,30.65
2019-03-21T04:37:56.653Z,30.02
2019-03-21T04:39:03.167Z,30.72
2019-03-21T04:40:11.594Z,28.35
2019-03-21T04:41:19.176Z,25.80
2019-03-21T04:42:25.071Z,30.77
2019-03-21T04:43:29.417Z,30.70
2019-03-21T04:44:44.384Z,32.93
2019-03-21T04:45:45.680Z,30.08
2019-03-21T04:46:59.682Z,32.48
2019-03-21T04:48:11.796Z,26.00
2019-03-21T04:49:19.092Z,30.52
2019-03-21T04:50:43.402Z,29.82
2019-03-21T04:51:49.107Z,25.17
2019-03-21T04:52:54.571Z,31.42
2019-03-21T04:54:00.536Z,27.75
2019-03-21T04:55:07.867Z,33.05
2019-03-21T04:56:14.783Z,31.37
2019-03-21T04:57:20.777Z,30.82
2019-03-21T04:58:27.418Z,29.65
2019-03-21T04:59:34.521Z,34.58
2019-03-21T05:00:47.391Z,32.42
2019-03-21T05:01:54.504Z,28.92
2019-03-21T05:03:07.994Z,29.23
2019-03-21T05:04:17.534Z,27.35
2019-03-21T05:06:29.180Z,29.77
2019-03-21T05:07:35.199Z,33.65
2019-03-21T05:08:40.798Z,30.40
2019-03-21T05:09:45.074Z,31.93
2019-03-21T05:10:49.584Z,31.00
2019-03-21T05:11:57.738Z,30.25
2019-03-21T05:13:02.828Z,31.48
2019-03-21T05:14:09.375Z,28.27
2019-03-21T05:15:22.206Z,33.42
2019-03-21T05:16:29.024Z,34.40
2019-03-21T05:17:34.771Z,33.00
2019-03-21T05:18:55.716Z,36.38
2019-03-21T05:20:03.369Z,29.52
2019-03-21T05:21:16.404Z,29.98
2019-03-21T05:22:23.216Z,35.15
2019-03-21T05:23:30.192Z,32.67
2019-03-21T05:24:34.546Z,30.75
2019-03-21T05:27:06.052Z,32.23
2019-03-21T05:28:11.914Z,27.85
2019-03-21T05:29:19.090Z,31.00
2019-03-21T05:30:51.612Z,30.55
2019-03-21T05:31:59.235Z,28.30
2019-03-21T05:33:06.416Z,32.60
2019-03-21T05:34:12.230Z,33.98
2019-03-21T05:35:18.072Z,30.52
2019-03-21T05:36:22.500Z,30.57
2019-03-21T05:37:29.311Z,26.55
2019-03-21T05:38:34.006Z,29.45
2019-03-21T05:39:39.130Z,28.85
2019-03-21T05:40:46.376Z,31.87
2019-03-21T05:41:53.680Z,36.00
2019-03-21T05:43:17.070Z,28.27
2019-03-21T05:44:30.797Z,27.82
2019-03-21T05:45:43.621Z,29.27
2019-03-21T05:46:48.123Z,34.63
2019-03-21T05:47:53.182Z,32.40
2019-03-21T05:49:01.377Z,33.70
2019-03-21T05:50:11.555Z,30.52
2019-03-21T05:51:18.011Z,32.90
2019-03-21T05:52:22.227Z,30.30
2019-03-21T05:53:29.390Z,31.60
2019-03-21T05:54:33.648Z,37.85
2019-03-21T05:55:39.548Z,27.50
2019-03-21T05:56:43.745Z,32.73
2019-03-21T05:57:55.485Z,31.60
2019-03-21T05:59:03.590Z,37.33
2019-03-21T06:00:16.296Z,30.50
2019-03-21T06:01:31.404Z,34.38
2019-03-21T06:02:26.571Z,34.13
2019-03-21T06:03:49.675Z,34.60
2019-03-21T06:04:56.544Z,29.70
2019-03-21T06:06:23.229Z,32.85
2019-03-21T06:07:32.824Z,29.85
2019-03-21T06:08:53.958Z,32.17
2019-03-21T06:09:47.962Z,32.28
2019-03-21T06:10:56.894Z,35.85
2019-03-21T06:12:04.368Z,31.33
2019-03-21T06:13:11.537Z,31.23
2019-03-21T06:14:16.008Z,35.45
2019-03-21T06:15:25.108Z,27.25
2019-03-21T06:16:37.623Z,29.95
2019-03-21T06:17:40.770Z,31.85
2019-03-21T06:19:02.015Z,37.80
2019-03-21T06:20:24.845Z,34.38
2019-03-21T06:21:54.912Z,31.97
2019-03-21T06:23:02.223Z,28.07
2019-03-21T06:24:21.339Z,30.05
2019-03-21T06:25:45.085Z,33.08
2019-03-21T06:27:14.433Z,38.83
2019-03-21T06:28:15.843Z,35.88
2019-03-21T06:29:21.791Z,30.55
2019-03-21T06:30:30.598Z,31.68
2019-03-21T06:31:46.095Z,35.38
2019-03-21T06:33:03.365Z,28.02
2019-03-21T06:33:58.377Z,37.05
2019-03-21T06:35:07.294Z,38.02
2019-03-21T06:36:15.749Z,30.20
2019-03-21T06:37:22.512Z,26.70
2019-03-21T06:38:37.487Z,28.85
2019-03-21T06:39:42.368Z,31.07
2019-03-21T06:40:52.201Z,32.33
2019-03-21T06:41:57.162Z,33.92
2019-03-21T06:43:06.067Z,30.85
2019-03-21T06:44:14.573Z,33.35
2019-03-21T06:45:30.963Z,32.88
2019-03-21T06:46:27.665Z,33.55
2019-03-21T06:47:33.707Z,35.08
2019-03-21T06:48:52.091Z,32.95
2019-03-21T06:50:18.886Z,37.30
2019-03-21T06:51:19.504Z,25.72
2019-03-21T06:52:29.379Z,32.88
2019-03-21T06:54:42.769Z,33.92
2019-03-21T06:55:56.703Z,37.50
2019-03-21T06:57:06.532Z,30.45
2019-03-21T06:58:15.921Z,33.53
2019-03-21T06:59:23.138Z,35.45
2019-03-21T07:00:35.758Z,28.38
2019-03-21T07:01:45.711Z,27.73
2019-03-21T07:04:21.533Z,31.95
2019-03-21T07:05:35.406Z,31.90
2019-03-21T07:08:04.773Z,35.13
2019-03-21T07:09:16.033Z,31.70
2019-03-21T07:11:36.004Z,31.00
2019-03-21T07:12:04.183Z,34.80
2019-03-21T07:12:50.957Z,33.67
2019-03-21T07:13:59.631Z,33.80
2019-03-21T07:15:43.454Z,33.53
2019-03-21T07:16:29.177Z,32.38
2019-03-21T07:17:57.209Z,31.10
2019-03-21T07:19:15.014Z,31.27
2019-03-21T07:20:43.918Z,28.60
2019-03-21T07:23:03.762Z,31.95
2019-03-21T07:24:10.712Z,30.95
2019-03-21T07:25:17.303Z,29.95
2019-03-21T07:26:28.365Z,34.67
2019-03-21T07:27:32.256Z,29.92
2019-03-21T07:28:40.664Z,29.20
2019-03-21T07:30:04.050Z,27.58
2019-03-21T07:31:14.988Z,32.08
2019-03-21T07:32:33.070Z,30.17
2019-03-21T07:33:41.403Z,29.57
2019-03-21T07:34:44.915Z,37.45
2019-03-21T07:35:51.055Z,28.05
2019-03-21T07:36:59.347Z,30.65
2019-03-21T07:38:10.692Z,33.02
2019-03-21T07:39:16.089Z,27.00
2019-03-21T07:40:23.973Z,29.42
2019-03-21T07:41:32.796Z,29.82
2019-03-21T07:42:48.859Z,29.52
2019-03-21T07:43:56.115Z,29.77
2019-03-21T07:45:01.968Z,26.05
2019-03-21T07:46:14.114Z,27.82
2019-03-21T07:47:16.481Z,28.20
2019-03-21T07:48:24.698Z,29.65
2019-03-21T07:51:00.282Z,33.33
2019-03-21T07:53:15.487Z,27.42
2019-03-21T07:54:20.866Z,27.50
2019-03-21T07:55:29.370Z,33.98
2019-03-21T07:56:35.525Z,25.05
2019-03-21T07:57:42.097Z,30.77
2019-03-21T07:58:48.008Z,26.90
2019-03-21T07:59:58.078Z,28.20
2019-03-21T08:01:06.741Z,30.80
2019-03-21T08:02:12.442Z,31.25
2019-03-21T08:03:24.513Z,30.70
2019-03-21T08:04:30.946Z,27.13
2019-03-21T08:07:33.581Z,27.85
2019-03-21T08:19:29.339Z,32.25
2019-03-21T09:44:41.510Z,18.15
2019-03-21T09:48:56.141Z,20.57
2019-03-21T11:49:57.106Z,13.98
2019-03-21T12:43:44.755Z,11.90
2019-03-21T13:28:49.537Z,11.40
2019-03-21T13:35:06.647Z,10.10
2019-03-21T14:02:10.305Z,10.48
2019-03-21T14:06:33.512Z,12.82
2019-03-21T14:11:53.413Z,13.38
2019-03-21T14:12:07.532Z,8.93
2019-03-21T14:14:20.044Z,12.53
2019-03-21T14:19:00.139Z,11.38
2019-03-21T14:24:44.401Z,13.62
2019-03-21T14:40:08.009Z,11.95
2019-03-21T16:30:23.521Z,19.40
2019-03-21T16:33:15.267Z,21.77
2019-03-21T16:38:57.171Z,21.35
2019-03-21T16:45:10.470Z,21.30
2019-03-21T18:30:26.049Z,30.68
2019-03-21T18:31:55.611Z,35.55
2019-03-21T18:33:09.896Z,37.17
2019-03-21T18:34:06.754Z,31.65
2019-03-21T18:35:26.630Z,37.48
2019-03-21T18:36:53.239Z,30.92
2019-03-21T18:52:35.399Z,31.50
2019-03-21T18:53:06.195Z,36.90
2019-03-21T18:57:26.378Z,30.27
2019-03-21T18:57:29.275Z,31.87
2019-03-21T18:58:23.275Z,28.95
2019-03-21T18:59:31.260Z,34.53
2019-03-21T19:01:11.856Z,30.08
2019-03-21T19:02:36.994Z,33.35
2019-03-21T19:03:13.465Z,33.33
2019-03-21T19:04:37.101Z,31.62
2019-03-21T19:05:42.495Z,32.10
2019-03-21T19:06:55.383Z,35.70
2019-03-21T19:08:07.625Z,35.75
2019-03-21T19:09:18.459Z,32.98
2019-03-21T19:10:31.063Z,34.35
2019-03-21T19:12:41.581Z,28.70
2019-03-21T19:14:20.406Z,34.50
2019-03-21T19:15:24.595Z,32.35
2019-03-21T19:16:34.544Z,36.48
2019-03-21T19:19:26.176Z,32.30
2019-03-21T19:20:52.211Z,35.88
2019-03-21T19:21:52.780Z,31.93
2019-03-21T19:23:00.260Z,38.00
2019-03-21T19:24:06.925Z,31.95
2019-03-21T19:25:18.861Z,37.58
2019-03-21T19:26:37.214Z,35.03
2019-03-21T19:27:30.125Z,35.70
2019-03-21T19:28:38.574Z,38.85
2019-03-21T19:29:43.279Z,37.20
2019-03-21T19:30:55.005Z,33.92
2019-03-21T19:32:13.413Z,38.90
2019-03-21T19:34:35.472Z,35.68
2019-03-21T19:37:16.327Z,36.10
2019-03-21T19:38:28.204Z,35.43
2019-03-21T19:39:38.227Z,35.05
2019-03-21T19:40:45.561Z,37.60
2019-03-21T19:42:06.047Z,34.35
2019-03-21T19:43:06.916Z,35.08
2019-03-21T19:44:19.043Z,33.58
2019-03-21T19:45:27.664Z,36.80
2019-03-21T19:46:33.616Z,35.63
2019-03-21T19:47:41.630Z,32.88
2019-03-21T19:48:51.848Z,40.67
2019-03-21T19:49:58.029Z,39.10
2019-03-21T19:51:04.144Z,37.95
2019-03-21T19:52:19.338Z,34.65
2019-03-21T19:53:31.233Z,32.63
2019-03-21T19:54:40.592Z,35.25
2019-03-21T19:56:07.778Z,37.98
2019-03-21T19:57:23.666Z,35.73
2019-03-21T19:59:25.407Z,36.65
2019-03-21T19:59:51.683Z,40.98
2019-03-21T20:01:02.600Z,46.42
2019-03-21T20:02:19.970Z,36.38
2019-03-21T20:03:27.304Z,37.10
2019-03-21T20:04:59.775Z,40.73
2019-03-21T20:05:59.927Z,39.27
2019-03-21T20:06:58.210Z,39.85
2019-03-21T20:08:06.300Z,35.03
2019-03-21T20:09:16.677Z,38.25
2019-03-21T20:11:31.210Z,37.05
2019-03-21T20:12:53.563Z,39.03
2019-03-21T20:14:03.736Z,38.53
2019-03-21T20:15:19.791Z,39.65
2019-03-21T20:16:39.040Z,42.43
2019-03-21T20:17:45.899Z,39.45
2019-03-21T20:18:53.178Z,38.50
2019-03-21T20:20:05.281Z,39.03
2019-03-21T20:21:16.952Z,43.50
2019-03-21T20:22:22.896Z,38.65
2019-03-21T20:23:34.864Z,39.30
2019-03-21T20:24:43.508Z,40.70
2019-03-21T20:25:55.344Z,43.65
2019-03-21T20:27:06.455Z,39.15
2019-03-21T20:28:19.937Z,42.85
2019-03-21T20:29:29.464Z,40.25
2019-03-21T20:30:41.793Z,38.73
2019-03-21T20:31:54.534Z,44.35
2019-03-21T20:34:38.924Z,41.55
2019-03-21T20:35:36.620Z,40.40
2019-03-21T20:36:46.542Z,42.65
2019-03-21T20:37:58.766Z,41.45
2019-03-21T20:39:06.203Z,40.55
2019-03-21T20:40:20.675Z,42.33
2019-03-21T20:41:33.909Z,39.35
2019-03-21T20:42:39.903Z,38.48
2019-03-21T20:43:45.451Z,36.38
2019-03-21T20:44:49.845Z,38.48
2019-03-21T20:45:56.932Z,34.73
2019-03-21T20:47:07.526Z,40.05
2019-03-21T20:48:11.461Z,40.05
2019-03-21T20:49:18.260Z,39.13
2019-03-21T20:50:26.977Z,42.93
2019-03-21T20:51:49.707Z,39.27
2019-03-21T20:52:58.202Z,37.95
2019-03-21T20:54:02.925Z,36.85
2019-03-21T20:55:56.612Z,39.60
2019-03-21T20:56:30.406Z,40.98
2019-03-21T20:57:44.108Z,39.40
2019-03-21T20:58:56.920Z,40.83
2019-03-21T21:00:19.686Z,40.75
2019-03-21T21:01:40.545Z,45.38
2019-03-21T21:02:52.084Z,41.42
2019-03-21T21:04:07.644Z,45.85
2019-03-21T21:08:45.078Z,40.03
2019-03-21T21:09:27.598Z,41.68
2019-03-21T21:10:36.634Z,37.83
2019-03-21T21:12:05.714Z,40.05
2019-03-21T21:14:40.062Z,39.60
2019-03-21T21:16:00.861Z,39.25
2019-03-21T21:20:01.188Z,41.63
2019-03-21T21:24:17.922Z,45.60
2019-03-21T21:25:51.915Z,42.45
2019-03-21T21:27:08.726Z,41.70
2019-03-21T21:30:00.954Z,45.70
2019-03-21T21:31:13.409Z,38.42
2019-03-21T21:32:33.110Z,44.13
2019-03-21T21:33:38.670Z,42.55
2019-03-21T21:36:22.186Z,39.35
2019-03-21T21:37:55.454Z,41.55
2019-03-21T21:38:44.524Z,38.90
2019-03-21T21:41:24.990Z,42.58
2019-03-21T21:42:34.102Z,40.40
2019-03-21T21:43:43.588Z,41.63
2019-03-21T21:45:02.587Z,43.13
2019-03-21T21:46:06.068Z,40.90
2019-03-21T21:48:32.167Z,43.87
2019-03-21T21:49:42.497Z,40.85
2019-03-21T21:50:53.908Z,38.15
2019-03-21T21:52:02.538Z,40.38
2019-03-21T21:53:09.279Z,46.37
2019-03-21T21:54:20.424Z,39.55
2019-03-21T21:55:27.533Z,40.45
2019-03-21T21:56:35.850Z,41.48
2019-03-21T21:57:49.537Z,42.73
2019-03-21T21:58:58.906Z,40.58
2019-03-21T22:00:05.554Z,41.27
2019-03-21T22:02:16.202Z,46.48
2019-03-21T22:03:40.780Z,42.50
2019-03-21T22:04:13.577Z,46.48
2019-03-21T22:04:52.518Z,43.45
2019-03-21T22:06:11.453Z,41.92
2019-03-21T22:09:03.906Z,48.08
2019-03-21T22:09:59.835Z,40.35
2019-03-21T22:16:03.187Z,45.50
2019-03-21T22:17:18.032Z,41.53
2019-03-21T22:18:29.423Z,35.88
2019-03-21T22:19:35.623Z,36.33
2019-03-21T22:20:42.402Z,39.35
2019-03-21T22:21:59.128Z,39.98
2019-03-21T22:24:01.372Z,41.65
2019-03-21T22:24:32.333Z,54.33
2019-03-21T22:26:16.506Z,40.67
2019-03-21T22:27:15.646Z,42.08
2019-03-21T22:28:28.969Z,45.03
2019-03-21T22:29:40.996Z,37.13
2019-03-21T22:32:23.550Z,43.35
2019-03-21T22:33:32.046Z,42.27
2019-03-21T22:34:43.466Z,37.60
2019-03-21T22:35:48.884Z,39.73
2019-03-21T22:37:15.375Z,41.63
2019-03-21T22:38:13.124Z,41.15
2019-03-21T22:39:21.402Z,37.88
2019-03-21T22:40:28.011Z,37.53
2019-03-21T22:42:19.707Z,37.63
2019-03-21T22:44:47.882Z,40.08
2019-03-21T22:46:34.587Z,36.17
2019-03-21T22:47:33.457Z,34.13
2019-03-21T22:48:53.751Z,40.92
2019-03-21T22:50:08.367Z,38.45
2019-03-21T22:51:24.144Z,39.53
2019-03-21T22:54:07.522Z,37.23
2019-03-21T22:54:34.850Z,36.42
2019-03-21T22:55:25.195Z,41.08
2019-03-21T22:56:49.097Z,36.48
2019-03-21T22:57:51.766Z,36.05
2019-03-21T22:58:56.148Z,38.00
2019-03-21T23:00:18.308Z,37.83
2019-03-21T23:01:16.409Z,47.30
2019-03-21T23:02:22.966Z,38.90
2019-03-21T23:03:27.939Z,46.68
2019-03-21T23:04:33.608Z,41.50
2019-03-21T23:05:41.027Z,40.38
2019-03-21T23:06:48.453Z,43.17
2019-03-21T23:07:53.685Z,41.92
2019-03-21T23:09:01.982Z,44.33
2019-03-21T23:10:12.425Z,39.65
2019-03-21T23:11:17.971Z,43.60
2019-03-21T23:12:23.795Z,37.83
2019-03-21T23:13:45.120Z,37.78
2019-03-21T23:14:49.239Z,43.10
2019-03-21T23:15:55.055Z,42.08
2019-03-21T23:17:01.738Z,42.58
2019-03-21T23:18:05.280Z,37.42
2019-03-21T23:19:09.580Z,39.30
2019-03-21T23:20:15.644Z,39.58
2019-03-21T23:21:22.702Z,41.28
2019-03-21T23:22:30.316Z,40.40
2019-03-21T23:23:37.000Z,48.87
2019-03-21T23:24:40.376Z,41.48
2019-03-21T23:25:46.293Z,38.73
2019-03-21T23:27:02.907Z,37.17
2019-03-21T23:28:10.761Z,43.30
2019-03-21T23:29:19.721Z,40.17
2019-03-21T23:30:36.021Z,39.85
2019-03-21T23:31:50.701Z,40.83
2019-03-21T23:32:58.701Z,40.20
2019-03-21T23:34:03.153Z,41.33
2019-03-21T23:35:13.702Z,38.65
2019-03-21T23:36:22.308Z,43.00
2019-03-21T23:37:32.055Z,45.55
2019-03-21T23:38:44.397Z,37.78
2019-03-21T23:39:48.582Z,43.48
2019-03-21T23:41:13.373Z,40.12
2019-03-21T23:42:23.123Z,38.65
2019-03-21T23:43:31.790Z,41.60
2019-03-21T23:44:39.511Z,42.20
2019-03-21T23:45:56.734Z,42.03
2019-03-21T23:47:11.979Z,43.17
2019-03-21T23:49:20.873Z,42.95
2019-03-21T23:49:46.088Z,41.48
2019-03-21T23:51:07.118Z,38.50
2019-03-21T23:52:09.741Z,46.08
2019-03-21T23:53:20.515Z,41.18
2019-03-21T23:54:28.013Z,39.08
2019-03-21T23:55:36.521Z,43.10
2019-03-21T23:56:40.661Z,42.15
2019-03-21T23:57:46.640Z,39.65
2019-03-21T23:58:59.151Z,41.95
